sensor_id;sensor_type;location;lat;lon;timestamp;pressure;altitude;pressure_sealevel;temperature;humidity
59971;BME280;45825;45.434;9.116;2022-09-23T00:00:10;100857.06;;;17.65;45.59
59971;BME280;45825;45.434;9.116;2022-09-23T00:02:35;100852.00;;;17.62;46.06
59971;BME280;45825;45.434;9.116;2022-09-23T00:05:01;100853.69;;;17.63;45.78
59971;BME280;45825;45.434;9.116;2022-09-23T00:07:27;100856.47;;;17.61;45.96
59971;BME280;45825;45.434;9.116;2022-09-23T00:09:52;100862.75;;;17.60;46.56
59971;BME280;45825;45.434;9.116;2022-09-23T00:12:19;100861.50;;;17.53;46.61
59971;BME280;45825;45.434;9.116;2022-09-23T00:14:44;100866.81;;;17.53;46.85
59971;BME280;45825;45.434;9.116;2022-09-23T00:17:10;100866.09;;;17.51;47.17
59971;BME280;45825;45.434;9.116;2022-09-23T00:19:37;100868.38;;;17.44;47.42
59971;BME280;45825;45.434;9.116;2022-09-23T00:22:04;100870.41;;;17.40;47.49
59971;BME280;45825;45.434;9.116;2022-09-23T00:24:29;100867.38;;;17.34;47.88
59971;BME280;45825;45.434;9.116;2022-09-23T00:26:57;100872.16;;;17.28;48.26
59971;BME280;45825;45.434;9.116;2022-09-23T00:29:23;100870.16;;;17.43;47.96
59971;BME280;45825;45.434;9.116;2022-09-23T00:31:48;100872.09;;;17.41;48.09
59971;BME280;45825;45.434;9.116;2022-09-23T00:34:14;100880.22;;;17.40;48.27
59971;BME280;45825;45.434;9.116;2022-09-23T00:36:39;100877.75;;;17.37;48.18
59971;BME280;45825;45.434;9.116;2022-09-23T00:39:05;100876.59;;;17.41;48.38
59971;BME280;45825;45.434;9.116;2022-09-23T00:41:31;100870.75;;;17.36;48.69
59971;BME280;45825;45.434;9.116;2022-09-23T00:43:58;100870.03;;;17.34;48.77
59971;BME280;45825;45.434;9.116;2022-09-23T00:46:34;100874.09;;;17.26;49.24
59971;BME280;45825;45.434;9.116;2022-09-23T00:49:10;100870.25;;;17.30;49.05
59971;BME280;45825;45.434;9.116;2022-09-23T00:51:39;100867.72;;;17.29;49.49
59971;BME280;45825;45.434;9.116;2022-09-23T00:54:08;100873.41;;;17.36;48.92
59971;BME280;45825;45.434;9.116;2022-09-23T00:56:36;100862.72;;;17.24;49.35
59971;BME280;45825;45.434;9.116;2022-09-23T00:59:04;100858.75;;;17.30;49.30
59971;BME280;45825;45.434;9.116;2022-09-23T01:01:30;100863.25;;;17.29;49.81
59971;BME280;45825;45.434;9.116;2022-09-23T01:03:55;100859.63;;;17.30;49.67
59971;BME280;45825;45.434;9.116;2022-09-23T01:06:21;100861.66;;;17.27;49.85
59971;BME280;45825;45.434;9.116;2022-09-23T01:08:47;100854.50;;;17.27;49.65
59971;BME280;45825;45.434;9.116;2022-09-23T01:11:36;100859.84;;;17.27;49.85
59971;BME280;45825;45.434;9.116;2022-09-23T01:25:55;100849.53;;;17.23;50.03
59971;BME280;45825;45.434;9.116;2022-09-23T01:28:48;100842.41;;;17.23;49.80
59971;BME280;45825;45.434;9.116;2022-09-23T01:31:23;100839.28;;;17.18;50.19
59971;BME280;45825;45.434;9.116;2022-09-23T01:34:13;100837.34;;;17.20;49.82
59971;BME280;45825;45.434;9.116;2022-09-23T01:39:21;100835.03;;;17.15;50.23
59971;BME280;45825;45.434;9.116;2022-09-23T01:42:13;100833.94;;;17.18;49.87
59971;BME280;45825;45.434;9.116;2022-09-23T01:47:29;100835.75;;;17.17;50.39
59971;BME280;45825;45.434;9.116;2022-09-23T01:50:06;100828.16;;;17.24;49.89
59971;BME280;45825;45.434;9.116;2022-09-23T01:52:54;100827.09;;;17.27;50.15
59971;BME280;45825;45.434;9.116;2022-09-23T01:55:28;100840.72;;;17.22;49.78
59971;BME280;45825;45.434;9.116;2022-09-23T01:58:05;100831.63;;;17.13;50.50
59971;BME280;45825;45.434;9.116;2022-09-23T02:00:36;100827.66;;;17.19;50.30
59971;BME280;45825;45.434;9.116;2022-09-23T02:03:16;100829.47;;;17.18;50.22
59971;BME280;45825;45.434;9.116;2022-09-23T02:05:53;100830.53;;;17.16;50.15
59971;BME280;45825;45.434;9.116;2022-09-23T02:08:25;100829.38;;;17.20;49.80
59971;BME280;45825;45.434;9.116;2022-09-23T02:11:06;100827.53;;;17.21;50.11
59971;BME280;45825;45.434;9.116;2022-09-23T02:18:56;100836.81;;;17.15;49.78
59971;BME280;45825;45.434;9.116;2022-09-23T02:21:28;100832.22;;;17.17;49.75
59971;BME280;45825;45.434;9.116;2022-09-23T02:24:07;100836.94;;;17.13;49.82
59971;BME280;45825;45.434;9.116;2022-09-23T02:26:42;100824.63;;;17.12;50.00
59971;BME280;45825;45.434;9.116;2022-09-23T02:29:17;100819.91;;;17.16;49.76
59971;BME280;45825;45.434;9.116;2022-09-23T02:34:49;100818.34;;;17.13;49.95
59971;BME280;45825;45.434;9.116;2022-09-23T02:37:30;100822.31;;;17.08;50.09
59971;BME280;45825;45.434;9.116;2022-09-23T02:40:09;100817.81;;;17.08;50.20
59971;BME280;45825;45.434;9.116;2022-09-23T02:42:44;100813.72;;;17.04;50.36
59971;BME280;45825;45.434;9.116;2022-09-23T02:45:11;100822.41;;;17.06;49.94
59971;BME280;45825;45.434;9.116;2022-09-23T02:47:39;100821.34;;;16.96;50.48
59971;BME280;45825;45.434;9.116;2022-09-23T02:50:06;100816.78;;;16.98;50.59
59971;BME280;45825;45.434;9.116;2022-09-23T02:52:33;100818.47;;;16.99;50.31
59971;BME280;45825;45.434;9.116;2022-09-23T02:55:01;100808.50;;;17.02;49.98
59971;BME280;45825;45.434;9.116;2022-09-23T02:57:26;100814.78;;;17.01;50.36
59971;BME280;45825;45.434;9.116;2022-09-23T02:59:52;100813.16;;;16.99;50.34
59971;BME280;45825;45.434;9.116;2022-09-23T03:05:10;100816.81;;;16.85;50.70
59971;BME280;45825;45.434;9.116;2022-09-23T03:15:49;100809.56;;;16.75;51.02
59971;BME280;45825;45.434;9.116;2022-09-23T03:18:20;100808.91;;;16.72;51.14
59971;BME280;45825;45.434;9.116;2022-09-23T03:20:50;100810.84;;;16.70;51.21
59971;BME280;45825;45.434;9.116;2022-09-23T03:23:21;100806.47;;;16.69;51.22
59971;BME280;45825;45.434;9.116;2022-09-23T03:25:51;100805.34;;;16.60;51.75
59971;BME280;45825;45.434;9.116;2022-09-23T03:28:19;100801.63;;;16.62;51.51
59971;BME280;45825;45.434;9.116;2022-09-23T03:30:48;100805.22;;;16.61;51.59
59971;BME280;45825;45.434;9.116;2022-09-23T03:33:15;100803.63;;;16.59;51.92
59971;BME280;45825;45.434;9.116;2022-09-23T03:35:51;100800.47;;;16.54;51.78
59971;BME280;45825;45.434;9.116;2022-09-23T03:38:40;100800.06;;;16.47;52.12
59971;BME280;45825;45.434;9.116;2022-09-23T03:41:10;100799.94;;;16.48;51.82
59971;BME280;45825;45.434;9.116;2022-09-23T03:43:42;100797.94;;;16.52;51.85
59971;BME280;45825;45.434;9.116;2022-09-23T03:46:08;100804.69;;;16.56;51.94
59971;BME280;45825;45.434;9.116;2022-09-23T03:48:33;100799.63;;;16.53;52.04
59971;BME280;45825;45.434;9.116;2022-09-23T03:51:07;100801.25;;;16.43;52.28
59971;BME280;45825;45.434;9.116;2022-09-23T03:53:42;100800.94;;;16.34;52.69
59971;BME280;45825;45.434;9.116;2022-09-23T03:56:07;100803.84;;;16.18;53.66
59971;BME280;45825;45.434;9.116;2022-09-23T03:58:32;100801.81;;;16.09;53.40
59971;BME280;45825;45.434;9.116;2022-09-23T04:00:58;100796.22;;;16.01;54.00
59971;BME280;45825;45.434;9.116;2022-09-23T04:03:23;100797.91;;;16.02;53.53
59971;BME280;45825;45.434;9.116;2022-09-23T04:05:51;100796.66;;;15.95;53.83
59971;BME280;45825;45.434;9.116;2022-09-23T04:08:17;100794.13;;;15.93;53.67
59971;BME280;45825;45.434;9.116;2022-09-23T04:10:42;100783.28;;;15.96;53.91
59971;BME280;45825;45.434;9.116;2022-09-23T04:13:07;100794.72;;;15.97;53.61
59971;BME280;45825;45.434;9.116;2022-09-23T04:15:33;100791.13;;;15.98;53.86
59971;BME280;45825;45.434;9.116;2022-09-23T04:17:58;100795.88;;;15.79;54.09
59971;BME280;45825;45.434;9.116;2022-09-23T04:20:24;100791.31;;;15.69;54.62
59971;BME280;45825;45.434;9.116;2022-09-23T04:22:54;100802.44;;;15.74;54.51
59971;BME280;45825;45.434;9.116;2022-09-23T04:25:20;100798.72;;;15.63;54.52
59971;BME280;45825;45.434;9.116;2022-09-23T04:27:45;100791.09;;;15.72;54.32
59971;BME280;45825;45.434;9.116;2022-09-23T04:30:11;100798.94;;;15.60;55.02
59971;BME280;45825;45.434;9.116;2022-09-23T04:32:36;100805.00;;;15.62;54.86
59971;BME280;45825;45.434;9.116;2022-09-23T04:35:02;100794.16;;;15.53;55.47
59971;BME280;45825;45.434;9.116;2022-09-23T04:37:28;100793.94;;;15.56;54.88
59971;BME280;45825;45.434;9.116;2022-09-23T04:39:54;100802.13;;;15.65;54.64
59971;BME280;45825;45.434;9.116;2022-09-23T04:42:20;100797.91;;;15.63;55.03
59971;BME280;45825;45.434;9.116;2022-09-23T04:44:45;100803.06;;;15.64;55.37
59971;BME280;45825;45.434;9.116;2022-09-23T04:47:11;100795.13;;;15.64;55.30
59971;BME280;45825;45.434;9.116;2022-09-23T04:49:36;100793.84;;;15.57;55.69
59971;BME280;45825;45.434;9.116;2022-09-23T04:52:02;100796.81;;;15.53;55.31
59971;BME280;45825;45.434;9.116;2022-09-23T04:54:29;100795.53;;;15.45;55.98
59971;BME280;45825;45.434;9.116;2022-09-23T04:56:55;100798.09;;;15.47;55.66
59971;BME280;45825;45.434;9.116;2022-09-23T04:59:20;100801.69;;;15.46;55.82
59971;BME280;45825;45.434;9.116;2022-09-23T05:01:45;100794.06;;;15.41;56.12
59971;BME280;45825;45.434;9.116;2022-09-23T05:04:11;100804.09;;;15.36;56.63
59971;BME280;45825;45.434;9.116;2022-09-23T05:06:38;100804.22;;;15.34;56.24
59971;BME280;45825;45.434;9.116;2022-09-23T05:09:06;100803.06;;;15.39;56.12
59971;BME280;45825;45.434;9.116;2022-09-23T05:11:32;100806.44;;;15.41;56.19
59971;BME280;45825;45.434;9.116;2022-09-23T05:13:58;100800.31;;;15.40;56.97
59971;BME280;45825;45.434;9.116;2022-09-23T05:16:24;100796.88;;;15.38;56.23
59971;BME280;45825;45.434;9.116;2022-09-23T05:18:51;100791.09;;;15.46;56.70
59971;BME280;45825;45.434;9.116;2022-09-23T05:21:18;100788.09;;;15.38;56.95
59971;BME280;45825;45.434;9.116;2022-09-23T05:23:48;100795.97;;;15.39;56.69
59971;BME280;45825;45.434;9.116;2022-09-23T05:26:16;100788.41;;;15.33;57.04
59971;BME280;45825;45.434;9.116;2022-09-23T05:28:41;100790.97;;;15.34;56.85
59971;BME280;45825;45.434;9.116;2022-09-23T05:31:10;100790.53;;;15.41;57.25
59971;BME280;45825;45.434;9.116;2022-09-23T05:33:38;100790.44;;;15.42;57.16
59971;BME280;45825;45.434;9.116;2022-09-23T05:36:04;100782.50;;;15.42;56.97
59971;BME280;45825;45.434;9.116;2022-09-23T05:38:30;100794.75;;;15.30;57.18
59971;BME280;45825;45.434;9.116;2022-09-23T05:40:57;100790.53;;;15.41;56.58
59971;BME280;45825;45.434;9.116;2022-09-23T05:43:23;100795.44;;;15.47;57.32
59971;BME280;45825;45.434;9.116;2022-09-23T05:45:50;100782.38;;;15.44;57.29
59971;BME280;45825;45.434;9.116;2022-09-23T05:48:15;100786.53;;;15.48;56.46
59971;BME280;45825;45.434;9.116;2022-09-23T05:50:50;100794.06;;;15.41;56.75
59971;BME280;45825;45.434;9.116;2022-09-23T05:53:16;100786.28;;;15.38;56.99
59971;BME280;45825;45.434;9.116;2022-09-23T05:55:42;100786.53;;;15.48;56.66
59971;BME280;45825;45.434;9.116;2022-09-23T05:58:10;100788.31;;;15.47;56.42
59971;BME280;45825;45.434;9.116;2022-09-23T06:00:38;100786.84;;;15.43;56.77
59971;BME280;45825;45.434;9.116;2022-09-23T06:03:03;100790.66;;;15.52;56.77
59971;BME280;45825;45.434;9.116;2022-09-23T06:05:29;100784.63;;;15.50;56.41
59971;BME280;45825;45.434;9.116;2022-09-23T06:07:55;100791.41;;;15.54;56.41
59971;BME280;45825;45.434;9.116;2022-09-23T06:10:20;100788.94;;;15.38;56.98
59971;BME280;45825;45.434;9.116;2022-09-23T06:12:46;100791.59;;;15.38;56.52
59971;BME280;45825;45.434;9.116;2022-09-23T06:15:11;100789.50;;;15.43;56.46
59971;BME280;45825;45.434;9.116;2022-09-23T06:17:36;100790.84;;;15.36;56.50
59971;BME280;45825;45.434;9.116;2022-09-23T06:20:02;100790.19;;;15.32;56.05
59971;BME280;45825;45.434;9.116;2022-09-23T06:22:27;100787.84;;;15.15;56.85
59971;BME280;45825;45.434;9.116;2022-09-23T06:24:52;100792.63;;;15.22;56.91
59971;BME280;45825;45.434;9.116;2022-09-23T06:27:18;100788.81;;;15.27;57.42
59971;BME280;45825;45.434;9.116;2022-09-23T06:29:43;100792.34;;;15.40;57.24
59971;BME280;45825;45.434;9.116;2022-09-23T06:32:08;100791.72;;;15.49;57.43
59971;BME280;45825;45.434;9.116;2022-09-23T06:34:34;100784.50;;;15.64;56.82
59971;BME280;45825;45.434;9.116;2022-09-23T06:36:59;100788.13;;;15.63;56.57
59971;BME280;45825;45.434;9.116;2022-09-23T06:39:24;100787.69;;;15.57;56.34
59971;BME280;45825;45.434;9.116;2022-09-23T06:41:50;100786.09;;;15.67;56.66
59971;BME280;45825;45.434;9.116;2022-09-23T06:44:15;100790.78;;;15.63;56.67
59971;BME280;45825;45.434;9.116;2022-09-23T06:46:41;100787.06;;;15.66;56.85
59971;BME280;45825;45.434;9.116;2022-09-23T06:49:06;100792.16;;;15.69;56.73
59971;BME280;45825;45.434;9.116;2022-09-23T06:51:31;100795.44;;;15.73;56.09
59971;BME280;45825;45.434;9.116;2022-09-23T06:53:56;100798.31;;;15.70;56.04
59971;BME280;45825;45.434;9.116;2022-09-23T06:56:22;100800.22;;;15.81;56.20
59971;BME280;45825;45.434;9.116;2022-09-23T06:58:47;100804.25;;;15.86;55.61
59971;BME280;45825;45.434;9.116;2022-09-23T07:01:15;100805.41;;;15.69;55.77
59971;BME280;45825;45.434;9.116;2022-09-23T07:03:42;100800.63;;;15.61;55.93
59971;BME280;45825;45.434;9.116;2022-09-23T07:06:07;100802.66;;;15.71;56.11
59971;BME280;45825;45.434;9.116;2022-09-23T07:08:33;100808.84;;;15.97;55.10
59971;BME280;45825;45.434;9.116;2022-09-23T07:11:01;100799.06;;;15.85;55.53
59971;BME280;45825;45.434;9.116;2022-09-23T07:13:27;100801.53;;;16.01;54.97
59971;BME280;45825;45.434;9.116;2022-09-23T07:15:55;100805.34;;;16.10;54.18
59971;BME280;45825;45.434;9.116;2022-09-23T07:18:23;100805.66;;;16.18;53.87
59971;BME280;45825;45.434;9.116;2022-09-23T07:20:52;100805.09;;;16.26;54.09
59971;BME280;45825;45.434;9.116;2022-09-23T07:23:19;100800.09;;;16.34;54.24
59971;BME280;45825;45.434;9.116;2022-09-23T07:25:45;100801.16;;;16.44;53.96
59971;BME280;45825;45.434;9.116;2022-09-23T07:28:11;100803.34;;;16.51;53.87
59971;BME280;45825;45.434;9.116;2022-09-23T07:30:40;100803.56;;;16.47;54.14
59971;BME280;45825;45.434;9.116;2022-09-23T07:33:06;100813.69;;;16.42;53.87
59971;BME280;45825;45.434;9.116;2022-09-23T07:35:32;100809.44;;;16.27;54.29
59971;BME280;45825;45.434;9.116;2022-09-23T07:37:58;100804.97;;;16.40;53.91
59971;BME280;45825;45.434;9.116;2022-09-23T07:40:23;100807.84;;;16.37;53.95
59971;BME280;45825;45.434;9.116;2022-09-23T07:42:49;100804.00;;;16.41;54.14
59971;BME280;45825;45.434;9.116;2022-09-23T07:45:14;100810.66;;;16.47;53.95
59971;BME280;45825;45.434;9.116;2022-09-23T07:47:39;100807.84;;;16.37;54.17
59971;BME280;45825;45.434;9.116;2022-09-23T07:50:06;100807.28;;;16.45;54.04
59971;BME280;45825;45.434;9.116;2022-09-23T07:52:35;100803.78;;;16.44;53.67
59971;BME280;45825;45.434;9.116;2022-09-23T07:55:01;100801.09;;;16.57;53.97
59971;BME280;45825;45.434;9.116;2022-09-23T07:57:26;100802.88;;;16.70;53.58
59971;BME280;45825;45.434;9.116;2022-09-23T07:59:51;100795.94;;;16.80;53.64
59971;BME280;45825;45.434;9.116;2022-09-23T08:02:17;100800.19;;;16.94;53.36
59971;BME280;45825;45.434;9.116;2022-09-23T08:04:42;100793.31;;;16.92;53.07
59971;BME280;45825;45.434;9.116;2022-09-23T08:07:11;100800.78;;;16.86;52.95
59971;BME280;45825;45.434;9.116;2022-09-23T08:09:38;100782.34;;;16.96;52.44
59971;BME280;45825;45.434;9.116;2022-09-23T08:12:07;100800.69;;;17.12;52.51
59971;BME280;45825;45.434;9.116;2022-09-23T08:14:32;100793.69;;;17.23;52.42
59971;BME280;45825;45.434;9.116;2022-09-23T08:16:58;100799.28;;;17.31;52.15
59971;BME280;45825;45.434;9.116;2022-09-23T08:19:23;100802.59;;;17.46;51.39
59971;BME280;45825;45.434;9.116;2022-09-23T08:21:49;100803.34;;;17.59;50.72
59971;BME280;45825;45.434;9.116;2022-09-23T08:24:18;100802.53;;;17.23;50.83
59971;BME280;45825;45.434;9.116;2022-09-23T08:26:44;100800.44;;;17.40;51.22
59971;BME280;45825;45.434;9.116;2022-09-23T08:29:12;100801.75;;;17.34;50.56
59971;BME280;45825;45.434;9.116;2022-09-23T08:31:37;100797.75;;;17.40;50.87
59971;BME280;45825;45.434;9.116;2022-09-23T08:34:03;100804.81;;;17.64;50.62
59971;BME280;45825;45.434;9.116;2022-09-23T08:36:30;100807.50;;;17.75;49.45
59971;BME280;45825;45.434;9.116;2022-09-23T08:38:55;100806.19;;;17.81;49.17
59971;BME280;45825;45.434;9.116;2022-09-23T08:44:00;100814.63;;;17.74;48.91
59971;BME280;45825;45.434;9.116;2022-09-23T08:46:31;100813.47;;;18.01;49.24
59971;BME280;45825;45.434;9.116;2022-09-23T08:48:58;100808.28;;;18.11;48.41
59971;BME280;45825;45.434;9.116;2022-09-23T08:51:34;100813.34;;;18.26;48.16
59971;BME280;45825;45.434;9.116;2022-09-23T08:54:00;100812.13;;;18.41;48.28
59971;BME280;45825;45.434;9.116;2022-09-23T08:56:27;100798.44;;;18.46;47.20
59971;BME280;45825;45.434;9.116;2022-09-23T09:02:00;100805.34;;;18.60;47.02
59971;BME280;45825;45.434;9.116;2022-09-23T09:09:48;100803.72;;;18.69;47.31
59971;BME280;45825;45.434;9.116;2022-09-23T09:12:23;100793.00;;;18.92;47.36
59971;BME280;45825;45.434;9.116;2022-09-23T09:15:01;100780.84;;;19.10;47.23
59971;BME280;45825;45.434;9.116;2022-09-23T09:22:38;100774.47;;;19.23;45.69
59971;BME280;45825;45.434;9.116;2022-09-23T09:25:18;100773.09;;;19.50;45.33
59971;BME280;45825;45.434;9.116;2022-09-23T09:27:46;100775.50;;;19.53;44.23
59971;BME280;45825;45.434;9.116;2022-09-23T09:30:13;100768.09;;;19.57;43.91
59971;BME280;45825;45.434;9.116;2022-09-23T09:32:46;100762.53;;;19.69;43.53
59971;BME280;45825;45.434;9.116;2022-09-23T09:35:37;100762.69;;;19.99;43.60
59971;BME280;45825;45.434;9.116;2022-09-23T09:38:04;100757.09;;;20.12;43.16
59971;BME280;45825;45.434;9.116;2022-09-23T09:40:31;100757.16;;;20.32;42.86
59971;BME280;45825;45.434;9.116;2022-09-23T09:42:57;100755.94;;;20.56;41.63
59971;BME280;45825;45.434;9.116;2022-09-23T09:48:30;100760.13;;;20.38;40.74
59971;BME280;45825;45.434;9.116;2022-09-23T09:51:21;100761.56;;;20.52;40.83
59971;BME280;45825;45.434;9.116;2022-09-23T09:53:50;100753.00;;;20.69;40.47
59971;BME280;45825;45.434;9.116;2022-09-23T09:56:40;100748.25;;;21.02;41.04
59971;BME280;45825;45.434;9.116;2022-09-23T09:59:10;100745.09;;;21.46;41.35
59971;BME280;45825;45.434;9.116;2022-09-23T10:01:36;100744.31;;;22.11;39.22
59971;BME280;45825;45.434;9.116;2022-09-23T10:04:18;100745.81;;;23.59;38.31
59971;BME280;45825;45.434;9.116;2022-09-23T10:07:03;100744.53;;;25.24;33.53
59971;BME280;45825;45.434;9.116;2022-09-23T10:09:34;100735.00;;;26.26;32.01
59971;BME280;45825;45.434;9.116;2022-09-23T10:12:16;100739.75;;;27.47;29.61
59971;BME280;45825;45.434;9.116;2022-09-23T10:14:43;100732.34;;;28.16;28.38
59971;BME280;45825;45.434;9.116;2022-09-23T10:17:31;100732.09;;;28.92;27.64
59971;BME280;45825;45.434;9.116;2022-09-23T10:19:59;100729.78;;;29.46;27.60
59971;BME280;45825;45.434;9.116;2022-09-23T10:22:30;100724.06;;;30.11;25.41
59971;BME280;45825;45.434;9.116;2022-09-23T10:25:01;100727.16;;;30.01;25.46
59971;BME280;45825;45.434;9.116;2022-09-23T10:27:33;100718.88;;;29.74;25.17
59971;BME280;45825;45.434;9.116;2022-09-23T10:30:20;100732.41;;;29.04;25.58
59971;BME280;45825;45.434;9.116;2022-09-23T10:32:46;100729.06;;;27.54;27.13
59971;BME280;45825;45.434;9.116;2022-09-23T10:35:17;100715.31;;;29.67;24.92
59971;BME280;45825;45.434;9.116;2022-09-23T10:37:51;100715.22;;;30.71;23.34
59971;BME280;45825;45.434;9.116;2022-09-23T10:40:29;100699.75;;;31.26;22.64
59971;BME280;45825;45.434;9.116;2022-09-23T10:46:28;100702.25;;;32.32;21.75
59971;BME280;45825;45.434;9.116;2022-09-23T10:51:39;100704.69;;;32.47;21.47
59971;BME280;45825;45.434;9.116;2022-09-23T10:56:45;100694.31;;;34.19;20.45
59971;BME280;45825;45.434;9.116;2022-09-23T11:02:15;100687.34;;;35.13;19.78
59971;BME280;45825;45.434;9.116;2022-09-23T11:05:14;100686.94;;;35.45;19.54
59971;BME280;45825;45.434;9.116;2022-09-23T11:10:55;100683.03;;;36.28;18.18
59971;BME280;45825;45.434;9.116;2022-09-23T11:13:46;100679.97;;;35.14;19.44
59971;BME280;45825;45.434;9.116;2022-09-23T11:27:54;100646.69;;;34.03;19.25
59971;BME280;45825;45.434;9.116;2022-09-23T11:30:36;100645.81;;;34.45;19.24
59971;BME280;45825;45.434;9.116;2022-09-23T11:35:49;100648.13;;;36.18;17.84
59971;BME280;45825;45.434;9.116;2022-09-23T11:38:20;100636.97;;;35.79;18.30
59971;BME280;45825;45.434;9.116;2022-09-23T11:40:54;100636.00;;;35.56;18.92
59971;BME280;45825;45.434;9.116;2022-09-23T11:43:26;100628.00;;;35.96;18.09
59971;BME280;45825;45.434;9.116;2022-09-23T11:46:02;100619.72;;;34.73;19.26
59971;BME280;45825;45.434;9.116;2022-09-23T11:49:02;100624.06;;;35.21;18.84
59971;BME280;45825;45.434;9.116;2022-09-23T11:51:42;100608.09;;;34.77;18.58
59971;BME280;45825;45.434;9.116;2022-09-23T11:54:18;100618.91;;;34.06;19.50
59971;BME280;45825;45.434;9.116;2022-09-23T11:56:49;100609.78;;;32.25;20.27
59971;BME280;45825;45.434;9.116;2022-09-23T12:02:03;100599.53;;;33.15;19.75
59971;BME280;45825;45.434;9.116;2022-09-23T12:04:37;100588.16;;;33.37;19.49
59971;BME280;45825;45.434;9.116;2022-09-23T12:09:40;100594.63;;;32.04;21.52
59971;BME280;45825;45.434;9.116;2022-09-23T12:12:17;100594.41;;;32.82;20.46
59971;BME280;45825;45.434;9.116;2022-09-23T12:18:06;100584.56;;;33.55;19.19
59971;BME280;45825;45.434;9.116;2022-09-23T12:20:44;100580.84;;;33.68;19.54
59971;BME280;45825;45.434;9.116;2022-09-23T12:23:33;100573.84;;;34.03;19.38
59971;BME280;45825;45.434;9.116;2022-09-23T12:26:24;100570.28;;;35.10;18.06
59971;BME280;45825;45.434;9.116;2022-09-23T12:28:51;100564.28;;;35.54;18.05
59971;BME280;45825;45.434;9.116;2022-09-23T12:31:21;100569.81;;;36.74;16.45
59971;BME280;45825;45.434;9.116;2022-09-23T12:33:56;100564.59;;;35.41;17.75
59971;BME280;45825;45.434;9.116;2022-09-23T12:36:29;100566.75;;;34.86;18.05
59971;BME280;45825;45.434;9.116;2022-09-23T12:41:47;100557.97;;;33.01;20.19
59971;BME280;45825;45.434;9.116;2022-09-23T12:49:52;100542.56;;;33.44;19.52
59971;BME280;45825;45.434;9.116;2022-09-23T12:54:48;100547.28;;;33.00;19.40
59971;BME280;45825;45.434;9.116;2022-09-23T12:59:52;100536.03;;;34.54;18.21
59971;BME280;45825;45.434;9.116;2022-09-23T13:02:33;100535.06;;;34.61;17.98
59971;BME280;45825;45.434;9.116;2022-09-23T13:05:18;100529.38;;;35.15;18.02
59971;BME280;45825;45.434;9.116;2022-09-23T13:08:17;100532.59;;;31.94;20.02
59971;BME280;45825;45.434;9.116;2022-09-23T13:10:47;100520.38;;;29.65;22.17
59971;BME280;45825;45.434;9.116;2022-09-23T13:15:51;100515.56;;;32.24;20.11
59971;BME280;45825;45.434;9.116;2022-09-23T13:20:44;100509.38;;;32.61;20.44
59971;BME280;45825;45.434;9.116;2022-09-23T13:25:47;100511.84;;;33.92;18.72
59971;BME280;45825;45.434;9.116;2022-09-23T13:28:42;100506.53;;;33.97;19.11
59971;BME280;45825;45.434;9.116;2022-09-23T13:31:18;100500.06;;;34.99;17.82
59971;BME280;45825;45.434;9.116;2022-09-23T13:33:50;100499.31;;;35.44;17.80
59971;BME280;45825;45.434;9.116;2022-09-23T13:36:18;100501.19;;;35.56;17.38
59971;BME280;45825;45.434;9.116;2022-09-23T13:38:44;100479.63;;;34.24;18.60
59971;BME280;45825;45.434;9.116;2022-09-23T13:43:50;100501.66;;;31.56;21.64
59971;BME280;45825;45.434;9.116;2022-09-23T13:46:19;100500.84;;;31.03;21.59
59971;BME280;45825;45.434;9.116;2022-09-23T13:48:46;100498.28;;;29.95;22.49
59971;BME280;45825;45.434;9.116;2022-09-23T13:51:48;100502.44;;;28.67;24.02
59971;BME280;45825;45.434;9.116;2022-09-23T13:54:47;100489.06;;;28.01;25.50
59971;BME280;45825;45.434;9.116;2022-09-23T13:57:26;100493.25;;;27.60;25.24
59971;BME280;45825;45.434;9.116;2022-09-23T13:59:53;100488.41;;;28.21;24.56
59971;BME280;45825;45.434;9.116;2022-09-23T14:02:21;100483.16;;;27.69;25.49
59971;BME280;45825;45.434;9.116;2022-09-23T14:04:50;100476.69;;;27.92;25.28
59971;BME280;45825;45.434;9.116;2022-09-23T14:07:17;100482.69;;;27.29;25.60
59971;BME280;45825;45.434;9.116;2022-09-23T14:09:47;100469.78;;;28.11;24.94
59971;BME280;45825;45.434;9.116;2022-09-23T14:12:14;100462.72;;;28.39;25.26
59971;BME280;45825;45.434;9.116;2022-09-23T14:14:46;100470.97;;;29.01;24.29
59971;BME280;45825;45.434;9.116;2022-09-23T14:17:16;100456.97;;;28.91;24.04
59971;BME280;45825;45.434;9.116;2022-09-23T14:19:44;100455.66;;;28.44;24.54
59971;BME280;45825;45.434;9.116;2022-09-23T14:22:27;100457.19;;;28.54;24.16
59971;BME280;45825;45.434;9.116;2022-09-23T14:24:54;100446.47;;;29.23;24.02
59971;BME280;45825;45.434;9.116;2022-09-23T14:27:29;100451.78;;;29.65;23.87
59971;BME280;45825;45.434;9.116;2022-09-23T14:29:55;100451.78;;;28.54;24.11
59971;BME280;45825;45.434;9.116;2022-09-23T14:32:22;100444.16;;;28.07;24.73
59971;BME280;45825;45.434;9.116;2022-09-23T14:40:28;100439.25;;;27.24;25.89
59971;BME280;45825;45.434;9.116;2022-09-23T14:45:23;100446.00;;;26.38;26.81
59971;BME280;45825;45.434;9.116;2022-09-23T14:48:00;100438.91;;;25.83;27.44
59971;BME280;45825;45.434;9.116;2022-09-23T14:50:30;100432.97;;;25.41;28.40
59971;BME280;45825;45.434;9.116;2022-09-23T14:55:51;100425.94;;;25.40;28.53
59971;BME280;45825;45.434;9.116;2022-09-23T14:58:20;100421.13;;;25.27;28.84
59971;BME280;45825;45.434;9.116;2022-09-23T15:00:58;100428.25;;;25.20;28.49
59971;BME280;45825;45.434;9.116;2022-09-23T15:03:24;100429.47;;;24.77;28.99
59971;BME280;45825;45.434;9.116;2022-09-23T15:06:04;100421.81;;;24.41;29.54
59971;BME280;45825;45.434;9.116;2022-09-23T15:08:33;100424.50;;;24.49;29.48
59971;BME280;45825;45.434;9.116;2022-09-23T15:11:02;100431.25;;;24.45;29.73
59971;BME280;45825;45.434;9.116;2022-09-23T15:13:30;100428.56;;;24.45;29.73